Terminal Aerodrome Forecast
Issued by NWS

Home | Current Version | Previous Version | Text Only | Print | Product List | Glossary On
Versions: 1 2 3 4 5 6 7 8 9 10 11 12 13 14 15 16 17 18 19
000
FTUS43 KPAH 231400 AAB
TAFCGI
TAF AMD
KCGI 231410Z 2314/2412 09003KT 3SM BR SCT004 BKN100
      TEMPO 2314/2316 1/2SM FG
     FM231600 VRB03KT P6SM SCT004 BKN020
     FM231800 VRB03KT 4SM -RA BR OVC009
     FM240000 36007KT 2SM -RA BR OVC008
     FM240600 34008KT 3SM BR OVC008=

USA.gov is the U.S. government's official web portal to all federal, state and local government web resources and services.